Time;durP1;ratioP1;P1;durP2;ratioP2;P2;SDS_P1;SDS_P2;PMS_P1;PMS_P2;Temp;Humidity;BMP_temperature;BMP_pressure;BME280_temperature;BME280_humidity;BME280_pressure;Samples;Min_cycle;Max_cycle;Signal;HPM_P1;HPM_P2
2024/01/04 00:00:04;;;;;;;16.10;7.60;;;;;;;14.20;35.52;98430.15;108938;1258;62444;-49
2024/01/04 00:02:32;;;;;;;17.40;9.20;;;;;;;14.23;35.54;98437.25;108921;1258;58225;-49
2024/01/04 00:04:59;;;;;;;17.70;8.40;;;;;;;14.23;35.56;98436.36;105684;1260;60614;-48
2024/01/04 00:07:27;;;;;;;14.30;7.80;;;;;;;14.19;35.41;98437.27;105650;1261;64872;-48
2024/01/04 00:09:55;;;;;;;14.70;7.00;;;;;;;14.12;35.40;98432.83;105223;1260;61354;-49
2024/01/04 00:12:22;;;;;;;14.40;6.50;;;;;;;14.07;35.41;98426.03;105792;1257;63749;-47
2024/01/04 00:14:50;;;;;;;18.90;8.80;;;;;;;14.04;35.56;98425.13;105228;1262;60562;-47
2024/01/04 00:17:18;;;;;;;17.40;8.30;;;;;;;13.98;35.60;98427.89;105283;1254;60431;-45
2024/01/04 00:19:45;;;;;;;22.90;9.60;;;;;;;13.97;35.55;98422.69;105214;1260;64920;-50
2024/01/04 00:22:13;;;;;;;18.50;10.20;;;;;;;13.99;35.42;98416.23;105238;1260;61345;-50
2024/01/04 00:24:41;;;;;;;12.80;6.60;;;;;;;14.02;35.45;98413.93;105199;1260;64211;-50
2024/01/04 00:27:08;;;;;;;19.10;8.60;;;;;;;13.99;35.57;98416.88;105249;1260;60546;-52
2024/01/04 00:29:36;;;;;;;17.30;6.40;;;;;;;13.93;35.65;98417.20;105223;1254;61154;-47
2024/01/04 00:32:04;;;;;;;14.10;7.60;;;;;;;13.88;35.53;98422.05;105354;1257;74308;-47
2024/01/04 00:34:31;;;;;;;21.60;7.30;;;;;;;13.76;35.68;98420.73;105584;1260;61408;-53
2024/01/04 00:36:59;;;;;;;20.50;9.40;;;;;;;13.67;35.73;98424.31;105191;1260;63883;-50
2024/01/04 00:39:26;;;;;;;16.10;7.00;;;;;;;13.64;35.83;98432.96;105199;1261;60566;-53
2024/01/04 00:41:55;;;;;;;17.00;8.40;;;;;;;13.64;36.08;98434.17;105978;1257;60355;-50
2024/01/04 00:44:24;;;;;;;17.70;7.60;;;;;;;13.61;35.92;98436.27;105861;1256;64839;-49
2024/01/04 00:46:52;;;;;;;15.70;8.80;;;;;;;13.56;35.86;98432.54;105952;1259;60370;-50
2024/01/04 00:49:19;;;;;;;15.30;6.30;;;;;;;13.53;36.00;98434.17;105494;1256;63977;-50
2024/01/04 00:51:47;;;;;;;15.50;4.90;;;;;;;13.56;35.92;98433.73;105944;1254;60533;-50
2024/01/04 00:54:16;;;;;;;14.90;6.70;;;;;;;13.63;35.80;98432.58;105470;1250;60426;-50
2024/01/04 00:56:44;;;;;;;16.30;5.90;;;;;;;13.69;35.84;98428.41;105464;1256;63700;-50
2024/01/04 00:59:11;;;;;;;12.00;4.90;;;;;;;13.76;35.68;98426.36;105391;1251;61324;-49
2024/01/04 01:01:39;;;;;;;13.90;6.10;;;;;;;13.82;35.62;98422.13;105382;1254;62464;-50
2024/01/04 01:04:07;;;;;;;15.80;6.50;;;;;;;13.89;35.62;98422.42;105393;1254;60600;-50
2024/01/04 01:06:36;;;;;;;11.70;5.90;;;;;;;13.99;35.53;98420.69;106415;1251;60584;-51
2024/01/04 01:09:04;;;;;;;14.30;7.70;;;;;;;14.00;35.32;98421.97;105476;1260;64969;-51
2024/01/04 01:11:31;;;;;;;12.50;8.40;;;;;;;13.94;35.24;98421.92;105688;1257;60449;-50
2024/01/04 01:13:59;;;;;;;15.20;6.90;;;;;;;13.89;35.06;98425.84;105632;1254;63788;-50
2024/01/04 01:16:27;;;;;;;17.50;8.70;;;;;;;13.82;35.11;98428.04;105512;1254;60559;-50
2024/01/04 01:18:54;;;;;;;14.00;6.40;;;;;;;13.75;35.11;98429.89;105326;1257;60520;-49
2024/01/04 01:21:22;;;;;;;18.90;7.20;;;;;;;13.69;35.15;98433.01;105949;1253;64894;-51
2024/01/04 01:23:50;;;;;;;16.40;7.60;;;;;;;13.66;35.16;98435.38;105502;1251;61776;-50
2024/01/04 01:26:18;;;;;;;15.90;7.90;;;;;;;13.64;35.20;98427.39;105493;1260;70822;-49
2024/01/04 01:28:45;;;;;;;15.00;8.30;;;;;;;13.61;35.26;98427.34;105419;1254;60441;-49
2024/01/04 01:31:13;;;;;;;14.40;6.50;;;;;;;13.56;35.37;98427.69;105459;1251;60601;-50
2024/01/04 01:33:43;;;;;;;16.80;8.60;;;;;;;13.54;35.41;98427.06;105596;1251;64868;-50
2024/01/04 01:36:11;;;;;;;14.00;6.30;;;;;;;13.53;35.53;98425.31;105653;1252;60435;-50
2024/01/04 01:38:38;;;;;;;14.50;5.90;;;;;;;13.55;35.66;98423.66;105447;1257;62522;-49
2024/01/04 01:41:06;;;;;;;16.60;5.80;;;;;;;13.60;35.77;98423.94;105662;1254;60589;-49
2024/01/04 01:43:34;;;;;;;11.80;5.20;;;;;;;13.57;35.87;98423.42;105517;1257;60356;-50
2024/01/04 01:46:02;;;;;;;12.60;5.10;;;;;;;13.59;36.07;98418.31;105466;1257;64856;-49
2024/01/04 01:48:29;;;;;;;14.60;6.10;;;;;;;13.66;36.12;98419.88;105806;1254;61559;-49
2024/01/04 01:50:57;;;;;;;15.70;7.20;;;;;;;13.72;36.28;98419.48;105431;1260;62744;-49
2024/01/04 01:53:26;;;;;;;16.60;6.40;;;;;;;13.77;36.56;98416.52;105529;1250;60526;-49
2024/01/04 01:55:54;;;;;;;23.80;11.00;;;;;;;13.87;36.79;98414.92;105496;1254;60434;-50
2024/01/04 01:58:22;;;;;;;15.70;7.60;;;;;;;14.01;36.77;98416.04;105365;1255;71901;-50
2024/01/04 02:00:49;;;;;;;16.90;8.00;;;;;;;14.11;36.69;98416.66;105403;1257;60505;-51
2024/01/04 02:03:17;;;;;;;14.50;5.80;;;;;;;14.18;36.41;98419.16;105366;1258;62548;-50
2024/01/04 02:05:45;;;;;;;13.60;7.80;;;;;;;14.19;36.39;98417.62;105456;1258;60575;-50
2024/01/04 02:08:13;;;;;;;17.90;5.90;;;;;;;14.24;36.68;98420.17;105540;1251;60313;-50
2024/01/04 02:10:41;;;;;;;11.10;3.90;;;;;;;14.26;36.72;98423.42;105298;1251;64927;-50
2024/01/04 02:13:10;;;;;;;9.60;4.00;;;;;;;14.26;36.89;98422.34;105297;1259;61356;-50
2024/01/04 02:15:37;;;;;;;8.50;2.70;;;;;;;14.36;37.14;98425.20;105571;1254;63761;-50
2024/01/04 02:18:05;;;;;;;8.80;2.40;;;;;;;14.51;37.15;98428.27;105417;1253;60796;-49
2024/01/04 02:20:33;;;;;;;7.10;2.30;;;;;;;14.61;37.31;98427.02;105338;1254;60446;-49
2024/01/04 02:23:01;;;;;;;7.10;3.10;;;;;;;14.73;37.52;98427.89;105539;1251;64940;-49
2024/01/04 02:25:31;;;;;;;6.10;1.70;;;;;;;14.88;37.79;98423.21;105506;1257;60535;-49
2024/01/04 02:27:59;;;;;;;7.30;2.40;;;;;;;14.99;37.94;98421.66;105494;1257;63736;-50
2024/01/04 02:30:26;;;;;;;10.00;3.20;;;;;;;15.07;38.11;98421.05;105517;1254;60546;-51
2024/01/04 02:32:54;;;;;;;4.40;1.50;;;;;;;15.12;38.19;98421.31;105414;1258;60477;-50
2024/01/04 02:35:22;;;;;;;5.10;1.80;;;;;;;15.16;38.18;98417.65;106010;1251;64952;-49
2024/01/04 02:37:50;;;;;;;5.80;1.60;;;;;;;15.21;38.17;98419.25;105926;1251;61321;-48
2024/01/04 02:40:17;;;;;;;6.10;1.50;;;;;;;15.22;38.35;98418.59;105517;1251;63760;-48
2024/01/04 02:42:45;;;;;;;5.00;2.30;;;;;;;15.27;38.43;98421.70;105482;1251;60918;-49
2024/01/04 02:45:14;;;;;;;4.80;1.60;;;;;;;15.36;38.52;98415.89;105516;1257;61439;-49
2024/01/04 02:47:42;;;;;;;5.10;1.60;;;;;;;15.44;38.40;98425.23;105428;1257;64922;-48
2024/01/04 02:50:11;;;;;;;4.20;1.60;;;;;;;15.52;38.35;98423.61;105536;1257;61392;-48
2024/01/04 02:52:39;;;;;;;4.40;1.60;;;;;;;15.61;38.49;98422.14;105344;1250;62449;-49
2024/01/04 02:55:07;;;;;;;5.00;1.40;;;;;;;15.73;38.49;98427.05;105522;1254;60468;-49
2024/01/04 02:57:35;;;;;;;4.50;1.40;;;;;;;15.81;38.35;98428.62;105744;1257;60300;-49
2024/01/04 03:00:03;;;;;;;9.50;4.80;;;;;;;15.79;38.21;98428.75;105550;1257;64925;-49
2024/01/04 03:02:31;;;;;;;5.70;2.00;;;;;;;15.76;38.45;98435.48;105788;1254;61532;-51
2024/01/04 03:04:58;;;;;;;5.10;2.20;;;;;;;15.76;38.39;98434.47;105930;1254;63899;-49
2024/01/04 03:07:26;;;;;;;3.80;1.20;;;;;;;15.76;38.36;98438.59;105471;1254;60524;-50
2024/01/04 03:09:55;;;;;;;5.60;2.20;;;;;;;15.76;38.37;98439.39;105483;1251;60562;-49
2024/01/04 03:12:22;;;;;;;5.40;1.60;;;;;;;15.78;38.40;98445.67;106109;1254;64963;-50
2024/01/04 03:14:50;;;;;;;4.60;1.30;;;;;;;15.82;38.36;98444.45;105354;1257;60386;-51
2024/01/04 03:17:18;;;;;;;5.90;1.40;;;;;;;15.93;38.26;98444.93;105528;1253;64278;-51
2024/01/04 03:19:45;;;;;;;4.00;1.00;;;;;;;16.06;38.22;98447.65;105504;1251;60445;-50
2024/01/04 03:22:13;;;;;;;3.60;1.40;;;;;;;16.18;38.23;98449.80;105383;1255;61599;-52
2024/01/04 03:24:40;;;;;;;9.60;6.00;;;;;;;16.30;38.08;98452.89;105451;1251;65017;-52
2024/01/04 03:27:08;;;;;;;9.10;4.10;;;;;;;16.38;37.69;98451.94;105502;1251;61309;-51
2024/01/04 03:29:36;;;;;;;10.30;4.50;;;;;;;16.38;37.13;98455.45;105715;1257;62516;-51
2024/01/04 03:32:05;;;;;;;17.30;11.50;;;;;;;16.32;36.83;98457.63;105553;1251;60584;-50
2024/01/04 03:34:33;;;;;;;8.90;4.40;;;;;;;16.25;36.69;98456.54;105351;1257;290047;-52
2024/01/04 03:39:09;;;;;;;10.40;5.20;;;;;;;14.16;39.76;98464.04;102435;1292;601114;-51
2024/01/04 03:41:37;;;;;;;10.80;4.70;;;;;;;15.64;36.63;98460.60;105503;1266;59431;-51
2024/01/04 03:44:04;;;;;;;12.10;3.90;;;;;;;15.84;36.16;98465.13;104477;1270;59523;-50
2024/01/04 03:46:32;;;;;;;9.90;4.90;;;;;;;15.82;36.16;98465.90;104647;1269;63942;-50
2024/01/04 03:49:00;;;;;;;11.60;5.30;;;;;;;15.78;35.98;98468.30;104480;1267;61832;-52
2024/01/04 03:51:27;;;;;;;14.80;6.20;;;;;;;15.68;35.76;98467.04;104500;1266;63758;-52
2024/01/04 03:53:56;;;;;;;11.10;4.10;;;;;;;15.58;35.66;98470.10;105045;1265;242933;-51
2024/01/04 03:56:24;;;;;;;15.90;7.50;;;;;;;15.49;35.87;98470.04;105162;1268;59297;-51
2024/01/04 03:58:51;;;;;;;9.30;4.50;;;;;;;15.44;36.01;98469.83;105156;1265;63965;-50
2024/01/04 04:01:19;;;;;;;10.30;5.00;;;;;;;15.43;36.14;98465.84;104717;1268;61403;-50
2024/01/04 04:03:47;;;;;;;10.10;4.10;;;;;;;15.51;36.25;98464.98;105441;1263;62483;-50
2024/01/04 04:06:18;;;;;;;20.40;14.20;;;;;;;15.54;36.07;98459.86;104735;1267;59752;-51
2024/01/04 04:08:46;;;;;;;10.60;4.20;;;;;;;15.51;36.11;98458.96;104690;1268;59773;-50
2024/01/04 04:11:16;;;;;;;9.40;4.50;;;;;;;15.51;36.41;98458.77;105475;1268;64127;-51
2024/01/04 04:13:44;;;;;;;11.30;4.80;;;;;;;15.55;36.63;98457.37;104885;1263;62544;-50
2024/01/04 04:16:11;;;;;;;13.20;5.20;;;;;;;15.59;36.68;98464.84;104752;1266;63681;-50
2024/01/04 04:18:39;;;;;;;12.20;5.50;;;;;;;15.58;36.53;98465.30;104661;1266;60880;-49
2024/01/04 04:21:06;;;;;;;10.60;4.70;;;;;;;15.53;36.38;98463.24;104847;1264;59737;-49
2024/01/04 04:23:34;;;;;;;14.30;5.80;;;;;;;15.45;36.20;98463.14;104823;1266;64147;-49
2024/01/04 04:26:05;;;;;;;11.50;5.90;;;;;;;15.37;36.06;98467.33;104645;1268;69262;-49
2024/01/04 04:28:33;;;;;;;10.80;5.20;;;;;;;15.31;35.93;98470.77;104816;1266;63766;-49
2024/01/04 04:31:00;;;;;;;14.20;4.20;;;;;;;15.23;36.14;98473.86;104975;1266;59685;-49
2024/01/04 04:33:28;;;;;;;11.70;3.40;;;;;;;15.22;35.93;98476.98;104652;1269;59573;-49
2024/01/04 04:35:56;;;;;;;10.20;4.20;;;;;;;15.27;35.99;98480.72;105147;1268;63163;-49
2024/01/04 04:38:29;;;;;;;11.10;4.00;;;;;;;15.34;35.90;98485.80;104798;1266;61357;-49
2024/01/04 04:40:57;;;;;;;9.70;3.90;;;;;;;15.46;35.90;98486.71;105143;1266;63795;-49
2024/01/04 04:43:25;;;;;;;9.70;4.60;;;;;;;15.58;35.99;98488.28;104765;1263;59698;-49
2024/01/04 04:45:52;;;;;;;13.70;6.30;;;;;;;15.74;35.68;98489.42;105253;1269;59689;-50
2024/01/04 04:48:20;;;;;;;12.90;5.20;;;;;;;15.87;35.44;98492.10;104773;1263;62839;-51
2024/01/04 04:50:49;;;;;;;15.30;6.90;;;;;;;15.86;35.23;98494.67;104722;1268;60241;-47
2024/01/04 04:53:17;;;;;;;13.10;6.10;;;;;;;15.61;35.44;98489.65;105288;1268;62473;-49
2024/01/04 04:55:44;;;;;;;17.70;9.10;;;;;;;15.50;35.64;98488.92;104753;1263;59673;-49
2024/01/04 04:58:12;;;;;;;12.20;6.10;;;;;;;15.51;35.83;98496.06;105485;1268;59762;-54
2024/01/04 05:00:40;;;;;;;16.90;8.40;;;;;;;15.49;35.66;98493.29;104809;1264;64107;-48
2024/01/04 05:03:07;;;;;;;23.90;9.90;;;;;;;15.45;35.72;98496.83;104883;1269;61416;-48
2024/01/04 05:05:35;;;;;;;34.80;15.20;;;;;;;15.41;35.91;98496.61;104900;1269;63741;-48
2024/01/04 05:08:06;;;;;;;70.80;26.70;;;;;;;15.47;36.67;98500.62;104787;1269;59769;-47
2024/01/04 05:10:34;;;;;;;62.60;30.40;;;;;;;15.59;37.08;98503.66;104900;1263;59728;-49
2024/01/04 05:13:01;;;;;;;32.70;13.50;;;;;;;15.73;37.45;98504.52;104811;1269;62828;-48
2024/01/04 05:15:29;;;;;;;13.10;5.30;;;;;;;15.88;37.68;98502.39;104679;1269;60249;-48
2024/01/04 05:17:57;;;;;;;7.30;2.60;;;;;;;16.03;37.90;98502.67;105057;1270;62495;-46
2024/01/04 05:20:25;;;;;;;8.90;5.00;;;;;;;16.15;37.98;98507.09;105097;1264;59666;-46
2024/01/04 05:22:52;;;;;;;4.10;1.00;;;;;;;16.28;38.02;98506.66;104788;1266;59749;-44
2024/01/04 05:25:20;;;;;;;9.60;4.90;;;;;;;16.41;38.06;98511.06;105189;1268;62865;-44
2024/01/04 05:27:47;;;;;;;5.50;1.50;;;;;;;16.45;38.09;98515.02;104654;1266;61405;-46
2024/01/04 05:30:15;;;;;;;6.70;1.70;;;;;;;16.45;38.11;98513.38;104469;1268;64140;-46
2024/01/04 05:32:43;;;;;;;5.70;1.80;;;;;;;16.43;38.05;98511.84;105374;1268;59784;-46
2024/01/04 05:35:11;;;;;;;4.90;2.00;;;;;;;16.41;38.11;98513.30;104748;1264;59590;-47
2024/01/04 05:37:39;;;;;;;4.10;1.30;;;;;;;16.38;38.11;98515.96;104687;1268;64181;-47
2024/01/04 05:40:07;;;;;;;9.60;4.30;;;;;;;16.41;38.10;98515.21;104741;1269;61195;-47
2024/01/04 05:42:35;;;;;;;4.00;1.50;;;;;;;16.45;38.08;98518.41;104838;1268;62579;-47
2024/01/04 05:45:04;;;;;;;8.00;4.20;;;;;;;16.51;37.97;98518.60;104841;1268;59685;-48
2024/01/04 05:47:32;;;;;;;4.30;1.50;;;;;;;16.57;38.01;98524.06;104933;1264;59888;-48
2024/01/04 05:49:59;;;;;;;3.80;1.20;;;;;;;16.58;38.04;98530.92;104603;1264;62866;-47
2024/01/04 05:52:27;;;;;;;9.40;4.60;;;;;;;16.58;38.03;98534.36;104654;1264;61340;-48
2024/01/04 05:54:55;;;;;;;5.90;2.00;;;;;;;16.57;38.03;98537.71;104773;1268;63707;-47
2024/01/04 05:57:28;;;;;;;11.00;4.80;;;;;;;16.63;37.90;98539.50;104607;1264;59782;-47
2024/01/04 05:59:56;;;;;;;27.20;11.40;;;;;;;16.71;37.80;98538.01;105664;1256;59759;-50
2024/01/04 06:02:26;;;;;;;66.00;39.80;;;;;;;16.82;37.72;98540.28;105543;1263;64770;-50
2024/01/04 06:04:54;;;;;;;34.70;14.30;;;;;;;16.91;37.62;98541.05;105150;1257;61383;-47
2024/01/04 06:07:22;;;;;;;24.70;11.80;;;;;;;16.99;37.60;98543.72;105713;1256;63676;-46
2024/01/04 06:09:52;;;;;;;10.70;3.40;;;;;;;17.00;37.72;98544.73;105677;1262;59763;-47
2024/01/04 06:12:20;;;;;;;27.30;14.80;;;;;;;17.08;37.59;98550.40;106585;1260;59750;-47
2024/01/04 06:14:49;;;;;;;11.10;4.00;;;;;;;17.09;37.22;98551.29;105120;1262;64106;-47
2024/01/04 06:17:16;;;;;;;6.80;2.60;;;;;;;17.05;37.06;98547.46;105037;1260;61332;-48
2024/01/04 06:19:44;;;;;;;6.70;2.30;;;;;;;17.00;37.00;98547.59;105045;1262;63770;-47
2024/01/04 06:22:13;;;;;;;6.70;1.70;;;;;;;16.96;36.73;98552.27;109019;1260;57778;-49
2024/01/04 06:24:41;;;;;;;6.80;2.70;;;;;;;16.91;36.48;98552.37;109043;1257;58173;-54
2024/01/04 06:27:08;;;;;;;8.30;3.80;;;;;;;16.92;36.22;98550.98;109004;1256;62895;-53
2024/01/04 06:29:36;;;;;;;4.70;1.90;;;;;;;16.99;36.35;98549.62;108988;1260;60303;-47
2024/01/04 06:32:04;;;;;;;3.80;1.30;;;;;;;17.05;36.10;98549.80;106190;1260;64258;-47
2024/01/04 06:34:32;;;;;;;4.70;1.70;;;;;;;17.09;36.23;98550.08;105425;1259;60394;-47
2024/01/04 06:36:59;;;;;;;8.80;4.60;;;;;;;17.20;36.04;98550.96;105233;1260;59659;-46
2024/01/04 06:39:28;;;;;;;6.30;2.20;;;;;;;17.24;36.05;98553.90;105197;1263;64575;-48
2024/01/04 06:41:56;;;;;;;8.10;4.20;;;;;;;17.24;35.81;98555.91;105262;1260;61350;-47
2024/01/04 06:44:24;;;;;;;5.60;2.50;;;;;;;17.24;35.75;98559.98;105899;1254;63869;-48
2024/01/04 06:47:04;;;;;;;7.70;4.40;;;;;;;17.22;35.74;98561.63;105699;1257;59842;-48
2024/01/04 06:49:31;;;;;;;8.50;2.70;;;;;;;17.18;35.83;98562.66;105529;1258;59649;-48
2024/01/04 06:51:59;;;;;;;5.60;1.70;;;;;;;17.15;36.01;98558.52;105754;1254;64082;-48
2024/01/04 06:54:27;;;;;;;9.70;4.70;;;;;;;17.13;36.31;98560.45;105378;1255;61396;-48
2024/01/04 06:56:54;;;;;;;4.90;2.10;;;;;;;17.07;36.31;98560.87;105394;1256;64240;-49
2024/01/04 06:59:22;;;;;;;4.00;1.30;;;;;;;17.11;36.35;98562.86;106012;1257;59846;-48
2024/01/04 07:01:50;;;;;;;11.40;5.90;;;;;;;17.16;36.67;98559.44;106017;1256;59570;-47
2024/01/04 07:04:17;;;;;;;7.90;1.70;;;;;;;17.21;36.77;98565.77;105420;1259;64110;-47
2024/01/04 07:06:45;;;;;;;10.10;4.30;;;;;;;17.27;36.78;98563.13;105465;1256;60070;-46
2024/01/04 07:09:14;;;;;;;15.20;7.00;;;;;;;17.34;36.89;98561.79;105388;1257;63696;-47
2024/01/04 07:11:42;;;;;;;6.10;2.10;;;;;;;17.36;36.87;98561.81;105539;1257;59720;-47
2024/01/04 07:14:09;;;;;;;12.70;5.20;;;;;;;17.36;36.91;98560.95;105428;1256;59649;-48
2024/01/04 07:16:44;;;;;;;6.60;1.70;;;;;;;17.36;36.98;98559.89;105486;1254;62886;-48
2024/01/04 07:19:12;;;;;;;9.80;5.00;;;;;;;17.34;36.93;98561.29;105416;1254;61357;-48
2024/01/04 07:21:41;;;;;;;5.10;1.40;;;;;;;17.27;37.06;98562.88;105471;1257;63680;-49
2024/01/04 07:24:09;;;;;;;4.90;1.40;;;;;;;17.30;37.15;98565.85;105426;1266;59746;-49
2024/01/04 07:26:37;;;;;;;10.50;4.20;;;;;;;17.37;37.15;98563.48;105500;1258;59557;-49
2024/01/04 07:29:05;;;;;;;4.70;1.20;;;;;;;17.42;37.23;98564.56;105690;1253;62932;-48
2024/01/04 07:31:32;;;;;;;10.40;4.40;;;;;;;17.48;37.24;98568.67;105488;1257;60356;-49
2024/01/04 07:34:00;;;;;;;8.40;2.60;;;;;;;17.55;37.25;98571.96;105383;1266;62476;-48
2024/01/04 07:36:28;;;;;;;16.60;9.60;;;;;;;17.64;37.27;98573.38;105816;1257;60494;-48
2024/01/04 07:38:58;;;;;;;12.10;4.90;;;;;;;17.69;37.16;98578.77;105884;1257;60050;-49
2024/01/04 07:41:26;;;;;;;17.20;11.90;;;;;;;17.70;36.62;98579.75;105496;1257;64253;-48
2024/01/04 07:43:53;;;;;;;13.40;6.40;;;;;;;17.64;36.13;98583.95;105758;1257;61426;-47
2024/01/04 07:46:21;;;;;;;19.00;14.90;;;;;;;17.53;36.05;98583.66;105554;1253;63867;-48
2024/01/04 07:48:49;;;;;;;12.90;6.10;;;;;;;17.41;35.85;98585.80;105475;1254;60455;-49
2024/01/04 07:51:17;;;;;;;22.30;8.60;;;;;;;17.35;35.63;98590.69;105473;1257;61352;-48
2024/01/04 07:53:45;;;;;;;15.70;5.70;;;;;;;17.32;35.41;98594.52;106143;1254;65469;-48
2024/01/04 07:56:13;;;;;;;28.40;20.60;;;;;;;17.27;35.40;98592.64;105489;1257;72027;-48
2024/01/04 07:58:40;;;;;;;18.30;9.40;;;;;;;17.19;35.32;98590.47;105447;1253;63739;-48
2024/01/04 08:01:07;;;;;;;30.10;22.20;;;;;;;17.10;35.36;98590.48;105449;1254;60448;-47
2024/01/04 08:03:35;;;;;;;20.50;10.00;;;;;;;17.02;35.46;98589.66;105440;1257;60336;-48
2024/01/04 08:06:03;;;;;;;14.40;7.40;;;;;;;16.96;35.38;98594.23;105366;1251;64970;-49
2024/01/04 08:08:31;;;;;;;29.90;23.30;;;;;;;16.91;35.58;98593.44;105662;1257;61378;-48
2024/01/04 08:11:02;;;;;;;20.50;10.00;;;;;;;16.88;35.57;98590.27;105766;1254;63683;-48
2024/01/04 08:13:30;;;;;;;23.10;11.70;;;;;;;16.95;35.66;98592.41;105764;1252;60548;-48
2024/01/04 08:15:58;;;;;;;14.00;6.80;;;;;;;17.02;35.51;98592.55;105787;1254;60376;-48
2024/01/04 08:18:26;;;;;;;16.30;9.60;;;;;;;17.04;35.49;98594.06;105878;1257;65427;-46
2024/01/04 08:20:54;;;;;;;26.90;19.90;;;;;;;17.07;35.59;98596.55;105423;1257;61332;-49
2024/01/04 08:23:22;;;;;;;16.90;7.90;;;;;;;17.12;35.81;98598.99;105990;1257;63711;-47
2024/01/04 08:25:50;;;;;;;15.60;7.90;;;;;;;17.19;35.92;98599.38;105984;1252;60558;-47
2024/01/04 08:28:17;;;;;;;29.90;21.30;;;;;;;17.25;35.90;98601.89;105427;1257;59818;-48
2024/01/04 08:30:45;;;;;;;19.60;8.90;;;;;;;17.26;35.95;98598.83;105467;1254;64867;-47
2024/01/04 08:33:13;;;;;;;30.00;21.90;;;;;;;17.22;35.93;98597.98;105366;1253;61567;-49
2024/01/04 08:35:41;;;;;;;15.60;6.50;;;;;;;17.19;35.90;98598.11;106194;1256;63864;-48
2024/01/04 08:38:08;;;;;;;16.10;6.30;;;;;;;17.19;35.85;98599.90;105427;1254;60509;-48
2024/01/04 08:40:38;;;;;;;13.60;6.80;;;;;;;17.23;35.81;98599.98;105372;1255;60581;-49
2024/01/04 08:43:08;;;;;;;13.60;7.20;;;;;;;17.30;35.94;98602.73;105430;1252;63695;-47
2024/01/04 08:45:36;;;;;;;28.90;19.70;;;;;;;17.39;35.75;98598.13;105500;1251;61400;-47
2024/01/04 08:48:03;;;;;;;19.60;10.50;;;;;;;17.48;36.04;98597.92;105433;1257;72415;-49
2024/01/04 08:50:31;;;;;;;31.10;22.20;;;;;;;17.54;35.90;98594.31;105487;1254;60660;-48
2024/01/04 08:52:59;;;;;;;22.10;10.10;;;;;;;17.52;35.83;98591.98;105713;1257;60419;-47
2024/01/04 08:55:27;;;;;;;23.40;11.80;;;;;;;17.50;35.81;98591.73;105475;1257;64981;-48
2024/01/04 08:57:54;;;;;;;37.10;25.90;;;;;;;17.50;35.82;98585.48;105994;1254;63461;-47
2024/01/04 09:00:22;;;;;;;18.40;8.80;;;;;;;17.49;35.73;98582.67;106043;1254;63770;-47
2024/01/04 09:02:50;;;;;;;17.20;7.70;;;;;;;17.49;35.57;98586.36;105537;1252;60464;-47
2024/01/04 09:05:17;;;;;;;31.70;22.40;;;;;;;17.53;35.56;98588.36;106120;1257;60367;-47
2024/01/04 09:07:45;;;;;;;20.80;11.20;;;;;;;17.59;35.59;98586.30;105401;1259;65507;-48
2024/01/04 09:10:13;;;;;;;25.50;16.70;;;;;;;17.64;35.72;98585.79;105442;1257;60819;-48
2024/01/04 09:12:42;;;;;;;16.50;9.30;;;;;;;17.67;35.84;98585.80;105460;1258;64173;-47
2024/01/04 09:15:13;;;;;;;30.20;20.70;;;;;;;17.65;35.94;98587.81;105369;1254;60632;-47
2024/01/04 09:17:43;;;;;;;14.50;6.50;;;;;;;17.63;36.17;98590.69;105533;1254;60821;-48
2024/01/04 09:20:13;;;;;;;27.20;19.90;;;;;;;17.71;36.61;98586.85;105667;1257;73407;-48
2024/01/04 09:22:41;;;;;;;10.10;4.80;;;;;;;17.74;36.41;98588.30;105469;1253;61645;-48
2024/01/04 09:25:08;;;;;;;10.10;4.00;;;;;;;17.83;36.42;98588.42;105445;1254;63682;-48
2024/01/04 09:27:36;;;;;;;14.50;8.20;;;;;;;17.95;36.74;98589.40;105616;1254;62458;-48
2024/01/04 09:30:05;;;;;;;14.40;7.80;;;;;;;18.07;36.75;98587.85;105549;1251;60511;-48
2024/01/04 09:32:33;;;;;;;6.10;2.20;;;;;;;18.22;36.95;98591.21;105622;1254;76092;-48
2024/01/04 09:35:00;;;;;;;13.40;7.10;;;;;;;18.38;36.86;98593.27;105510;1257;60629;-47
2024/01/04 09:37:28;;;;;;;6.50;2.30;;;;;;;18.46;36.86;98590.46;105734;1255;63751;-47
2024/01/04 09:39:55;;;;;;;14.40;8.00;;;;;;;18.50;37.11;98587.80;105395;1254;60615;-50
2024/01/04 09:42:25;;;;;;;7.30;3.00;;;;;;;18.53;36.93;98588.09;105519;1254;60457;-48
2024/01/04 09:44:53;;;;;;;18.50;9.60;;;;;;;18.56;36.78;98589.73;105752;1254;63658;-47
2024/01/04 09:47:22;;;;;;;11.90;3.90;;;;;;;18.53;36.76;98587.08;105278;1254;61575;-47
2024/01/04 09:49:51;;;;;;;11.60;6.20;;;;;;;18.55;36.74;98584.80;106144;1257;63668;-47
2024/01/04 09:52:22;;;;;;;7.40;3.10;;;;;;;18.58;36.73;98581.79;105513;1252;60511;-47
2024/01/04 09:54:51;;;;;;;12.60;5.80;;;;;;;18.65;36.73;98581.63;106016;1257;60348;-47
2024/01/04 09:57:19;;;;;;;9.00;3.00;;;;;;;18.75;36.79;98583.75;106074;1253;64901;-47
2024/01/04 09:59:47;;;;;;;19.80;11.30;;;;;;;18.84;36.72;98581.28;106044;1257;61329;-47
2024/01/04 10:02:15;;;;;;;11.70;3.40;;;;;;;18.88;36.75;98578.01;106254;1254;62567;-48
2024/01/04 10:04:43;;;;;;;25.40;14.90;;;;;;;18.90;36.68;98573.88;105581;1257;60509;-47
2024/01/04 10:07:10;;;;;;;21.70;14.10;;;;;;;18.91;36.56;98572.52;105588;1257;60387;-47
2024/01/04 10:09:49;;;;;;;7.70;3.50;;;;;;;18.87;36.53;98571.25;105389;1253;64901;-49
2024/01/04 10:12:17;;;;;;;10.30;5.20;;;;;;;18.90;36.53;98568.63;106045;1254;61294;-46
2024/01/04 10:14:44;;;;;;;9.40;5.00;;;;;;;18.93;36.47;98571.15;106180;1253;63743;-47
2024/01/04 10:17:12;;;;;;;10.90;2.50;;;;;;;18.91;36.38;98567.89;105383;1254;60494;-46
2024/01/04 10:19:40;;;;;;;13.20;6.10;;;;;;;18.88;36.44;98565.29;105531;1251;60454;-48
2024/01/04 10:22:09;;;;;;;11.10;5.70;;;;;;;18.83;36.56;98563.65;105709;1254;65866;-47
2024/01/04 10:24:38;;;;;;;7.90;2.60;;;;;;;18.82;36.56;98566.77;105444;1251;70944;-47
2024/01/04 10:27:08;;;;;;;9.00;5.40;;;;;;;18.78;36.61;98558.84;105460;1256;62897;-47
2024/01/04 10:29:37;;;;;;;13.50;7.00;;;;;;;18.77;36.52;98555.41;105740;1253;62573;-47
2024/01/04 10:32:09;;;;;;;9.50;4.30;;;;;;;18.85;36.56;98558.87;105672;1251;61236;-47
2024/01/04 10:34:38;;;;;;;37.10;24.50;;;;;;;18.93;36.41;98557.61;105672;1253;65068;-47
2024/01/04 10:37:17;;;;;;;37.30;26.00;;;;;;;19.05;36.28;98559.13;105562;1257;60386;-47
2024/01/04 10:39:56;;;;;;;32.90;24.80;;;;;;;19.16;36.00;98561.91;107023;1253;63828;-47
2024/01/04 10:42:24;;;;;;;24.90;13.90;;;;;;;19.22;35.73;98561.64;105993;1254;60424;-48
2024/01/04 10:44:52;;;;;;;42.20;30.90;;;;;;;19.26;35.55;98559.66;106803;1253;60530;-47
2024/01/04 10:47:20;;;;;;;48.10;35.20;;;;;;;19.28;35.29;98559.30;106086;1254;64072;-48
2024/01/04 10:49:48;;;;;;;32.60;17.90;;;;;;;19.28;34.98;98556.59;106114;1254;61309;-46
2024/01/04 10:52:19;;;;;;;30.80;17.50;;;;;;;19.20;34.81;98558.01;106084;1253;63747;-47
2024/01/04 10:54:49;;;;;;;46.20;33.40;;;;;;;19.18;34.81;98557.21;106057;1256;60500;-47
2024/01/04 10:57:17;;;;;;;112.40;78.90;;;;;;;19.20;34.80;98551.81;105306;1254;60477;-47
2024/01/04 10:59:45;;;;;;;92.70;65.40;;;;;;;19.16;34.66;98553.05;105416;1254;64358;-47
2024/01/04 11:02:13;;;;;;;102.10;68.40;;;;;;;19.09;34.74;98552.02;105477;1254;61424;-49
2024/01/04 11:04:41;;;;;;;52.60;24.80;;;;;;;19.01;34.78;98552.41;105337;1254;64456;-48
2024/01/04 11:07:09;;;;;;;83.50;59.50;;;;;;;18.90;34.71;98548.10;105490;1258;61282;-49
2024/01/04 11:09:37;;;;;;;40.70;22.50;;;;;;;18.80;34.69;98543.88;105452;1253;60558;-47
2024/01/04 11:12:05;;;;;;;57.30;41.90;;;;;;;18.63;34.80;98545.67;105356;1254;67748;-47
2024/01/04 11:14:32;;;;;;;33.70;16.40;;;;;;;18.48;35.04;98549.10;105569;1255;61489;-47
2024/01/04 11:17:06;;;;;;;55.60;41.50;;;;;;;18.43;35.30;98547.23;105485;1254;63676;-46
2024/01/04 11:20:16;;;;;;;39.60;23.40;;;;;;;18.41;35.54;98548.46;105506;1257;60447;-47
2024/01/04 11:23:02;;;;;;;55.90;41.30;;;;;;;18.46;35.49;98549.36;105446;1255;60444;-48